sensor_id;sensor_type;location;lat;lon;timestamp;P1;durP1;ratioP1;P2;durP2;ratioP2
4700;SDS011;8724;51.272;6.554;2023-02-10T00:01:56;30.27;;;21.87;;
4700;SDS011;8724;51.272;6.554;2023-02-10T00:04:25;28.83;;;21.77;;
4700;SDS011;8724;51.272;6.554;2023-02-10T00:06:54;27.00;;;21.67;;
4700;SDS011;8724;51.272;6.554;2023-02-10T00:09:22;29.37;;;23.20;;
4700;SDS011;8724;51.272;6.554;2023-02-10T00:11:50;29.40;;;22.17;;
4700;SDS011;8724;51.272;6.554;2023-02-10T00:14:26;30.03;;;22.70;;
4700;SDS011;8724;51.272;6.554;2023-02-10T00:16:56;26.70;;;21.30;;
4700;SDS011;8724;51.272;6.554;2023-02-10T00:19:26;28.60;;;22.20;;
4700;SDS011;8724;51.272;6.554;2023-02-10T00:21:55;32.77;;;21.80;;
4700;SDS011;8724;51.272;6.554;2023-02-10T00:24:24;32.13;;;22.13;;
4700;SDS011;8724;51.272;6.554;2023-02-10T00:26:53;25.40;;;21.10;;
4700;SDS011;8724;51.272;6.554;2023-02-10T00:29:21;27.30;;;21.20;;
4700;SDS011;8724;51.272;6.554;2023-02-10T00:31:50;28.10;;;22.53;;
4700;SDS011;8724;51.272;6.554;2023-02-10T00:34:18;29.57;;;22.30;;
4700;SDS011;8724;51.272;6.554;2023-02-10T00:36:49;30.13;;;21.70;;
4700;SDS011;8724;51.272;6.554;2023-02-10T00:39:18;29.63;;;22.40;;
4700;SDS011;8724;51.272;6.554;2023-02-10T00:41:46;30.00;;;23.87;;
4700;SDS011;8724;51.272;6.554;2023-02-10T00:44:15;30.20;;;24.53;;
4700;SDS011;8724;51.272;6.554;2023-02-10T00:46:43;30.03;;;22.83;;
4700;SDS011;8724;51.272;6.554;2023-02-10T00:49:11;30.87;;;22.70;;
4700;SDS011;8724;51.272;6.554;2023-02-10T00:51:40;29.13;;;22.63;;
4700;SDS011;8724;51.272;6.554;2023-02-10T00:54:09;29.30;;;22.73;;
4700;SDS011;8724;51.272;6.554;2023-02-10T00:56:39;35.37;;;22.97;;
4700;SDS011;8724;51.272;6.554;2023-02-10T00:59:08;29.40;;;21.70;;
4700;SDS011;8724;51.272;6.554;2023-02-10T01:01:39;30.70;;;22.90;;
4700;SDS011;8724;51.272;6.554;2023-02-10T01:04:07;31.97;;;23.37;;
4700;SDS011;8724;51.272;6.554;2023-02-10T01:06:36;27.13;;;22.50;;
4700;SDS011;8724;51.272;6.554;2023-02-10T01:09:04;31.07;;;23.37;;
4700;SDS011;8724;51.272;6.554;2023-02-10T01:11:34;30.70;;;24.33;;
4700;SDS011;8724;51.272;6.554;2023-02-10T01:14:03;28.57;;;21.43;;
4700;SDS011;8724;51.272;6.554;2023-02-10T01:16:32;31.93;;;22.40;;
4700;SDS011;8724;51.272;6.554;2023-02-10T01:19:00;31.70;;;22.50;;
4700;SDS011;8724;51.272;6.554;2023-02-10T01:21:29;28.10;;;21.60;;
4700;SDS011;8724;51.272;6.554;2023-02-10T01:23:58;34.30;;;23.90;;
4700;SDS011;8724;51.272;6.554;2023-02-10T01:26:26;30.07;;;22.90;;
4700;SDS011;8724;51.272;6.554;2023-02-10T01:28:58;33.67;;;25.40;;
4700;SDS011;8724;51.272;6.554;2023-02-10T01:31:26;26.90;;;21.93;;
4700;SDS011;8724;51.272;6.554;2023-02-10T01:33:56;31.60;;;22.87;;
4700;SDS011;8724;51.272;6.554;2023-02-10T01:36:24;27.87;;;22.93;;
4700;SDS011;8724;51.272;6.554;2023-02-10T01:38:56;28.60;;;21.60;;
4700;SDS011;8724;51.272;6.554;2023-02-10T01:41:24;28.70;;;23.90;;
4700;SDS011;8724;51.272;6.554;2023-02-10T01:43:54;32.63;;;22.60;;
4700;SDS011;8724;51.272;6.554;2023-02-10T01:46:26;29.43;;;22.60;;
4700;SDS011;8724;51.272;6.554;2023-02-10T01:48:55;28.37;;;22.57;;
4700;SDS011;8724;51.272;6.554;2023-02-10T01:51:27;28.20;;;23.80;;
4700;SDS011;8724;51.272;6.554;2023-02-10T01:54:01;29.60;;;22.47;;
4700;SDS011;8724;51.272;6.554;2023-02-10T01:56:31;28.00;;;21.47;;
4700;SDS011;8724;51.272;6.554;2023-02-10T01:59:02;32.70;;;21.83;;
4700;SDS011;8724;51.272;6.554;2023-02-10T02:01:30;25.10;;;21.70;;
4700;SDS011;8724;51.272;6.554;2023-02-10T02:03:59;28.47;;;22.50;;
4700;SDS011;8724;51.272;6.554;2023-02-10T02:06:29;26.73;;;21.83;;
4700;SDS011;8724;51.272;6.554;2023-02-10T02:08:58;25.70;;;21.20;;
4700;SDS011;8724;51.272;6.554;2023-02-10T02:11:29;31.50;;;22.70;;
4700;SDS011;8724;51.272;6.554;2023-02-10T02:14:11;30.60;;;22.40;;
4700;SDS011;8724;51.272;6.554;2023-02-10T02:16:58;29.00;;;22.13;;
4700;SDS011;8724;51.272;6.554;2023-02-10T02:19:42;27.80;;;23.83;;
4700;SDS011;8724;51.272;6.554;2023-02-10T02:23:06;26.50;;;21.97;;
4700;SDS011;8724;51.272;6.554;2023-02-10T02:25:47;28.90;;;24.30;;
4700;SDS011;8724;51.272;6.554;2023-02-10T02:28:42;33.90;;;22.80;;
4700;SDS011;8724;51.272;6.554;2023-02-10T02:31:33;30.03;;;23.60;;
4700;SDS011;8724;51.272;6.554;2023-02-10T02:34:22;25.87;;;21.73;;
4700;SDS011;8724;51.272;6.554;2023-02-10T02:36:57;33.00;;;25.13;;
4700;SDS011;8724;51.272;6.554;2023-02-10T02:39:29;31.10;;;23.73;;
4700;SDS011;8724;51.272;6.554;2023-02-10T02:42:07;29.70;;;21.47;;
4700;SDS011;8724;51.272;6.554;2023-02-10T02:44:42;28.17;;;22.10;;
4700;SDS011;8724;51.272;6.554;2023-02-10T02:47:17;28.50;;;22.80;;
4700;SDS011;8724;51.272;6.554;2023-02-10T02:49:57;29.43;;;23.57;;
4700;SDS011;8724;51.272;6.554;2023-02-10T02:52:36;32.50;;;24.80;;
4700;SDS011;8724;51.272;6.554;2023-02-10T02:55:13;28.53;;;22.73;;
4700;SDS011;8724;51.272;6.554;2023-02-10T02:57:54;29.67;;;22.50;;
4700;SDS011;8724;51.272;6.554;2023-02-10T03:00:26;28.13;;;22.33;;
4700;SDS011;8724;51.272;6.554;2023-02-10T03:02:59;29.17;;;23.30;;
4700;SDS011;8724;51.272;6.554;2023-02-10T03:05:31;34.17;;;23.90;;
4700;SDS011;8724;51.272;6.554;2023-02-10T03:08:01;29.50;;;23.27;;
4700;SDS011;8724;51.272;6.554;2023-02-10T03:10:31;33.30;;;24.30;;
4700;SDS011;8724;51.272;6.554;2023-02-10T03:13:00;30.03;;;24.83;;
4700;SDS011;8724;51.272;6.554;2023-02-10T03:15:30;31.17;;;23.77;;
4700;SDS011;8724;51.272;6.554;2023-02-10T03:18:01;30.73;;;23.47;;
4700;SDS011;8724;51.272;6.554;2023-02-10T03:20:30;28.40;;;23.20;;
4700;SDS011;8724;51.272;6.554;2023-02-10T03:22:58;27.50;;;23.40;;
4700;SDS011;8724;51.272;6.554;2023-02-10T03:25:27;29.10;;;23.60;;
4700;SDS011;8724;51.272;6.554;2023-02-10T03:27:55;29.67;;;22.90;;
4700;SDS011;8724;51.272;6.554;2023-02-10T03:30:24;29.63;;;24.63;;
4700;SDS011;8724;51.272;6.554;2023-02-10T03:32:52;28.57;;;23.40;;
4700;SDS011;8724;51.272;6.554;2023-02-10T03:35:23;27.23;;;22.97;;
4700;SDS011;8724;51.272;6.554;2023-02-10T03:37:51;33.80;;;25.50;;
4700;SDS011;8724;51.272;6.554;2023-02-10T03:40:20;33.57;;;23.70;;
4700;SDS011;8724;51.272;6.554;2023-02-10T03:42:49;31.77;;;24.93;;
4700;SDS011;8724;51.272;6.554;2023-02-10T03:45:17;33.73;;;24.87;;
4700;SDS011;8724;51.272;6.554;2023-02-10T03:47:46;31.20;;;24.57;;
4700;SDS011;8724;51.272;6.554;2023-02-10T03:50:14;31.40;;;24.10;;
4700;SDS011;8724;51.272;6.554;2023-02-10T03:52:44;29.50;;;24.17;;
4700;SDS011;8724;51.272;6.554;2023-02-10T03:55:12;29.30;;;23.40;;
4700;SDS011;8724;51.272;6.554;2023-02-10T03:57:43;35.23;;;25.17;;
4700;SDS011;8724;51.272;6.554;2023-02-10T04:00:13;37.27;;;24.47;;
4700;SDS011;8724;51.272;6.554;2023-02-10T04:02:42;30.77;;;26.40;;
4700;SDS011;8724;51.272;6.554;2023-02-10T04:05:10;33.50;;;26.70;;
4700;SDS011;8724;51.272;6.554;2023-02-10T04:07:39;34.23;;;26.00;;
4700;SDS011;8724;51.272;6.554;2023-02-10T04:10:09;32.87;;;25.73;;
4700;SDS011;8724;51.272;6.554;2023-02-10T04:12:37;32.63;;;24.33;;
4700;SDS011;8724;51.272;6.554;2023-02-10T04:15:06;31.00;;;23.07;;
4700;SDS011;8724;51.272;6.554;2023-02-10T04:17:35;31.20;;;23.93;;
4700;SDS011;8724;51.272;6.554;2023-02-10T04:20:03;31.67;;;25.13;;
4700;SDS011;8724;51.272;6.554;2023-02-10T04:22:32;37.27;;;24.83;;
4700;SDS011;8724;51.272;6.554;2023-02-10T04:25:01;29.57;;;23.70;;
4700;SDS011;8724;51.272;6.554;2023-02-10T04:27:30;35.77;;;26.00;;
4700;SDS011;8724;51.272;6.554;2023-02-10T04:29:59;42.10;;;32.10;;
4700;SDS011;8724;51.272;6.554;2023-02-10T04:32:27;47.43;;;35.50;;
4700;SDS011;8724;51.272;6.554;2023-02-10T04:34:56;52.90;;;37.03;;
4700;SDS011;8724;51.272;6.554;2023-02-10T04:37:24;42.60;;;32.50;;
4700;SDS011;8724;51.272;6.554;2023-02-10T04:39:52;35.30;;;29.73;;
4700;SDS011;8724;51.272;6.554;2023-02-10T04:42:21;37.40;;;27.30;;
4700;SDS011;8724;51.272;6.554;2023-02-10T04:44:58;34.47;;;26.77;;
4700;SDS011;8724;51.272;6.554;2023-02-10T04:47:27;32.27;;;25.57;;
4700;SDS011;8724;51.272;6.554;2023-02-10T04:49:56;31.70;;;25.10;;
4700;SDS011;8724;51.272;6.554;2023-02-10T04:52:25;32.70;;;23.57;;
4700;SDS011;8724;51.272;6.554;2023-02-10T04:54:53;31.70;;;24.73;;
4700;SDS011;8724;51.272;6.554;2023-02-10T04:57:22;33.50;;;24.20;;
4700;SDS011;8724;51.272;6.554;2023-02-10T04:59:52;27.63;;;23.50;;
4700;SDS011;8724;51.272;6.554;2023-02-10T05:02:27;33.30;;;26.23;;
4700;SDS011;8724;51.272;6.554;2023-02-10T05:04:56;34.33;;;26.10;;
4700;SDS011;8724;51.272;6.554;2023-02-10T05:07:26;33.57;;;25.87;;
4700;SDS011;8724;51.272;6.554;2023-02-10T05:09:55;32.07;;;26.07;;
4700;SDS011;8724;51.272;6.554;2023-02-10T05:12:26;127.87;;;82.83;;
4700;SDS011;8724;51.272;6.554;2023-02-10T05:14:55;52.40;;;40.97;;
4700;SDS011;8724;51.272;6.554;2023-02-10T05:17:24;42.87;;;33.40;;
4700;SDS011;8724;51.272;6.554;2023-02-10T05:19:53;41.57;;;29.77;;
4700;SDS011;8724;51.272;6.554;2023-02-10T05:22:21;36.00;;;27.30;;
4700;SDS011;8724;51.272;6.554;2023-02-10T05:24:55;38.53;;;27.53;;
4700;SDS011;8724;51.272;6.554;2023-02-10T05:27:24;34.47;;;27.20;;
4700;SDS011;8724;51.272;6.554;2023-02-10T05:29:53;35.00;;;27.40;;
4700;SDS011;8724;51.272;6.554;2023-02-10T05:32:21;30.97;;;25.73;;
4700;SDS011;8724;51.272;6.554;2023-02-10T05:34:51;34.93;;;29.03;;
4700;SDS011;8724;51.272;6.554;2023-02-10T05:37:19;40.93;;;27.67;;
4700;SDS011;8724;51.272;6.554;2023-02-10T05:39:47;32.90;;;25.60;;
4700;SDS011;8724;51.272;6.554;2023-02-10T05:42:16;33.97;;;26.87;;
4700;SDS011;8724;51.272;6.554;2023-02-10T05:44:44;130.07;;;93.07;;
4700;SDS011;8724;51.272;6.554;2023-02-10T05:47:13;60.00;;;45.33;;
4700;SDS011;8724;51.272;6.554;2023-02-10T05:49:41;43.43;;;32.20;;
4700;SDS011;8724;51.272;6.554;2023-02-10T05:52:11;38.50;;;28.70;;
4700;SDS011;8724;51.272;6.554;2023-02-10T05:54:40;37.17;;;28.80;;
4700;SDS011;8724;51.272;6.554;2023-02-10T05:57:08;36.13;;;28.40;;
4700;SDS011;8724;51.272;6.554;2023-02-10T05:59:36;33.83;;;25.50;;
4700;SDS011;8724;51.272;6.554;2023-02-10T06:02:05;33.73;;;27.50;;
4700;SDS011;8724;51.272;6.554;2023-02-10T06:04:34;34.40;;;25.87;;
4700;SDS011;8724;51.272;6.554;2023-02-10T06:07:02;38.50;;;27.00;;
4700;SDS011;8724;51.272;6.554;2023-02-10T06:09:32;34.63;;;26.43;;
4700;SDS011;8724;51.272;6.554;2023-02-10T06:12:00;31.87;;;26.37;;
4700;SDS011;8724;51.272;6.554;2023-02-10T06:14:30;35.33;;;27.43;;
4700;SDS011;8724;51.272;6.554;2023-02-10T06:16:59;34.70;;;27.20;;
4700;SDS011;8724;51.272;6.554;2023-02-10T06:19:27;32.60;;;26.00;;
4700;SDS011;8724;51.272;6.554;2023-02-10T06:21:55;32.00;;;25.50;;
4700;SDS011;8724;51.272;6.554;2023-02-10T06:24:24;34.00;;;26.53;;
4700;SDS011;8724;51.272;6.554;2023-02-10T06:26:54;32.60;;;26.07;;
4700;SDS011;8724;51.272;6.554;2023-02-10T06:29:22;35.73;;;26.43;;
4700;SDS011;8724;51.272;6.554;2023-02-10T06:31:51;30.57;;;25.93;;
4700;SDS011;8724;51.272;6.554;2023-02-10T06:34:19;32.93;;;24.83;;
4700;SDS011;8724;51.272;6.554;2023-02-10T06:36:48;32.13;;;25.03;;
4700;SDS011;8724;51.272;6.554;2023-02-10T06:39:16;33.63;;;25.37;;
4700;SDS011;8724;51.272;6.554;2023-02-10T06:41:44;30.70;;;25.47;;
4700;SDS011;8724;51.272;6.554;2023-02-10T06:44:14;31.70;;;24.90;;
4700;SDS011;8724;51.272;6.554;2023-02-10T06:46:43;29.07;;;24.80;;
4700;SDS011;8724;51.272;6.554;2023-02-10T06:49:11;30.27;;;23.43;;
4700;SDS011;8724;51.272;6.554;2023-02-10T06:51:39;31.90;;;24.67;;
4700;SDS011;8724;51.272;6.554;2023-02-10T06:54:07;32.60;;;26.40;;
4700;SDS011;8724;51.272;6.554;2023-02-10T06:56:36;30.70;;;24.83;;
4700;SDS011;8724;51.272;6.554;2023-02-10T06:59:06;34.80;;;25.67;;
4700;SDS011;8724;51.272;6.554;2023-02-10T07:01:35;31.80;;;25.60;;
4700;SDS011;8724;51.272;6.554;2023-02-10T07:04:04;29.93;;;24.67;;
4700;SDS011;8724;51.272;6.554;2023-02-10T07:06:32;36.00;;;26.47;;
4700;SDS011;8724;51.272;6.554;2023-02-10T07:09:01;35.00;;;26.23;;
4700;SDS011;8724;51.272;6.554;2023-02-10T07:11:30;38.40;;;26.57;;
4700;SDS011;8724;51.272;6.554;2023-02-10T07:13:59;33.90;;;26.27;;
4700;SDS011;8724;51.272;6.554;2023-02-10T07:16:27;33.87;;;25.90;;
4700;SDS011;8724;51.272;6.554;2023-02-10T07:18:58;36.97;;;25.97;;
4700;SDS011;8724;51.272;6.554;2023-02-10T07:21:27;34.53;;;24.77;;
4700;SDS011;8724;51.272;6.554;2023-02-10T07:23:55;35.67;;;27.70;;
4700;SDS011;8724;51.272;6.554;2023-02-10T07:26:24;34.20;;;25.97;;
4700;SDS011;8724;51.272;6.554;2023-02-10T07:28:52;33.87;;;27.27;;
4700;SDS011;8724;51.272;6.554;2023-02-10T07:31:21;35.07;;;25.60;;
4700;SDS011;8724;51.272;6.554;2023-02-10T07:33:49;32.67;;;25.47;;
4700;SDS011;8724;51.272;6.554;2023-02-10T07:36:19;32.50;;;27.30;;
4700;SDS011;8724;51.272;6.554;2023-02-10T07:38:47;35.10;;;27.07;;
4700;SDS011;8724;51.272;6.554;2023-02-10T07:41:15;32.57;;;24.87;;
4700;SDS011;8724;51.272;6.554;2023-02-10T07:43:44;30.27;;;24.60;;
4700;SDS011;8724;51.272;6.554;2023-02-10T07:46:15;39.20;;;26.07;;
4700;SDS011;8724;51.272;6.554;2023-02-10T07:48:43;37.30;;;27.73;;
4700;SDS011;8724;51.272;6.554;2023-02-10T07:51:12;31.53;;;25.87;;
4700;SDS011;8724;51.272;6.554;2023-02-10T07:53:42;34.73;;;27.17;;
4700;SDS011;8724;51.272;6.554;2023-02-10T07:56:10;32.80;;;25.77;;
4700;SDS011;8724;51.272;6.554;2023-02-10T07:58:39;39.13;;;26.23;;
4700;SDS011;8724;51.272;6.554;2023-02-10T08:01:07;32.93;;;25.87;;
4700;SDS011;8724;51.272;6.554;2023-02-10T08:03:36;35.70;;;27.57;;
4700;SDS011;8724;51.272;6.554;2023-02-10T08:06:05;41.07;;;28.03;;
4700;SDS011;8724;51.272;6.554;2023-02-10T08:08:34;37.80;;;29.27;;
4700;SDS011;8724;51.272;6.554;2023-02-10T08:11:04;39.60;;;26.73;;
4700;SDS011;8724;51.272;6.554;2023-02-10T08:13:33;37.30;;;28.23;;
4700;SDS011;8724;51.272;6.554;2023-02-10T08:16:03;54.00;;;41.70;;
4700;SDS011;8724;51.272;6.554;2023-02-10T08:18:34;69.50;;;50.67;;
4700;SDS011;8724;51.272;6.554;2023-02-10T08:21:03;46.30;;;35.07;;
4700;SDS011;8724;51.272;6.554;2023-02-10T08:23:32;39.17;;;29.20;;
4700;SDS011;8724;51.272;6.554;2023-02-10T08:26:02;36.87;;;28.83;;
4700;SDS011;8724;51.272;6.554;2023-02-10T08:28:34;34.10;;;26.87;;
4700;SDS011;8724;51.272;6.554;2023-02-10T08:31:03;37.53;;;27.07;;
4700;SDS011;8724;51.272;6.554;2023-02-10T08:33:33;34.43;;;28.10;;
4700;SDS011;8724;51.272;6.554;2023-02-10T08:36:12;38.50;;;27.87;;
4700;SDS011;8724;51.272;6.554;2023-02-10T08:38:43;33.00;;;26.67;;
4700;SDS011;8724;51.272;6.554;2023-02-10T08:41:14;36.40;;;27.33;;
4700;SDS011;8724;51.272;6.554;2023-02-10T08:43:43;35.57;;;28.60;;
4700;SDS011;8724;51.272;6.554;2023-02-10T08:46:12;36.23;;;27.57;;
4700;SDS011;8724;51.272;6.554;2023-02-10T08:48:41;39.97;;;27.67;;
4700;SDS011;8724;51.272;6.554;2023-02-10T08:51:10;37.03;;;27.43;;
4700;SDS011;8724;51.272;6.554;2023-02-10T08:53:40;38.10;;;26.50;;
4700;SDS011;8724;51.272;6.554;2023-02-10T08:56:16;33.20;;;26.27;;
4700;SDS011;8724;51.272;6.554;2023-02-10T08:58:45;35.80;;;27.23;;
4700;SDS011;8724;51.272;6.554;2023-02-10T09:01:15;34.57;;;25.87;;
4700;SDS011;8724;51.272;6.554;2023-02-10T09:03:55;34.00;;;25.37;;
4700;SDS011;8724;51.272;6.554;2023-02-10T09:06:24;36.33;;;26.13;;
4700;SDS011;8724;51.272;6.554;2023-02-10T09:08:56;36.10;;;27.43;;
4700;SDS011;8724;51.272;6.554;2023-02-10T09:11:27;35.30;;;26.70;;
4700;SDS011;8724;51.272;6.554;2023-02-10T09:13:56;36.23;;;26.60;;
4700;SDS011;8724;51.272;6.554;2023-02-10T09:16:24;33.53;;;26.60;;
4700;SDS011;8724;51.272;6.554;2023-02-10T09:18:53;33.70;;;27.30;;
4700;SDS011;8724;51.272;6.554;2023-02-10T09:21:21;35.37;;;26.90;;
4700;SDS011;8724;51.272;6.554;2023-02-10T09:23:56;35.90;;;25.23;;
4700;SDS011;8724;51.272;6.554;2023-02-10T09:26:24;35.20;;;27.27;;
4700;SDS011;8724;51.272;6.554;2023-02-10T09:28:54;34.20;;;27.07;;
4700;SDS011;8724;51.272;6.554;2023-02-10T09:31:23;35.00;;;27.50;;
4700;SDS011;8724;51.272;6.554;2023-02-10T09:33:52;35.53;;;25.33;;
4700;SDS011;8724;51.272;6.554;2023-02-10T09:36:21;35.73;;;26.50;;
4700;SDS011;8724;51.272;6.554;2023-02-10T09:38:49;35.27;;;27.73;;
4700;SDS011;8724;51.272;6.554;2023-02-10T09:41:22;37.30;;;26.87;;
4700;SDS011;8724;51.272;6.554;2023-02-10T09:44:10;34.40;;;25.47;;
4700;SDS011;8724;51.272;6.554;2023-02-10T09:50:13;37.77;;;27.50;;
4700;SDS011;8724;51.272;6.554;2023-02-10T09:52:53;38.37;;;26.17;;
4700;SDS011;8724;51.272;6.554;2023-02-10T09:55:37;39.50;;;26.43;;
4700;SDS011;8724;51.272;6.554;2023-02-10T09:58:12;37.73;;;27.23;;
4700;SDS011;8724;51.272;6.554;2023-02-10T10:00:47;35.90;;;27.43;;
4700;SDS011;8724;51.272;6.554;2023-02-10T10:03:19;36.30;;;26.80;;
4700;SDS011;8724;51.272;6.554;2023-02-10T10:05:55;32.77;;;26.53;;
4700;SDS011;8724;51.272;6.554;2023-02-10T10:08:32;34.73;;;27.37;;
4700;SDS011;8724;51.272;6.554;2023-02-10T10:11:09;40.17;;;28.23;;
4700;SDS011;8724;51.272;6.554;2023-02-10T10:13:49;36.77;;;27.53;;
4700;SDS011;8724;51.272;6.554;2023-02-10T10:19:14;46.50;;;27.80;;
4700;SDS011;8724;51.272;6.554;2023-02-10T10:21:50;38.57;;;27.80;;
4700;SDS011;8724;51.272;6.554;2023-02-10T10:24:27;41.60;;;29.57;;
4700;SDS011;8724;51.272;6.554;2023-02-10T10:27:10;58.00;;;33.13;;
4700;SDS011;8724;51.272;6.554;2023-02-10T10:29:48;39.97;;;29.13;;
4700;SDS011;8724;51.272;6.554;2023-02-10T10:32:27;46.40;;;32.47;;
4700;SDS011;8724;51.272;6.554;2023-02-10T10:35:05;44.23;;;31.57;;
4700;SDS011;8724;51.272;6.554;2023-02-10T10:37:43;39.50;;;28.77;;
4700;SDS011;8724;51.272;6.554;2023-02-10T10:40:14;41.13;;;29.63;;
4700;SDS011;8724;51.272;6.554;2023-02-10T10:42:45;40.70;;;28.57;;
4700;SDS011;8724;51.272;6.554;2023-02-10T10:45:17;43.60;;;30.30;;
4700;SDS011;8724;51.272;6.554;2023-02-10T10:47:52;39.00;;;28.60;;
4700;SDS011;8724;51.272;6.554;2023-02-10T10:50:24;37.30;;;26.77;;
4700;SDS011;8724;51.272;6.554;2023-02-10T10:52:55;41.20;;;28.17;;
4700;SDS011;8724;51.272;6.554;2023-02-10T10:55:27;34.97;;;26.70;;
4700;SDS011;8724;51.272;6.554;2023-02-10T10:57:59;34.97;;;27.17;;
4700;SDS011;8724;51.272;6.554;2023-02-10T11:00:30;38.70;;;28.13;;
4700;SDS011;8724;51.272;6.554;2023-02-10T11:03:01;37.03;;;26.30;;
4700;SDS011;8724;51.272;6.554;2023-02-10T11:05:31;37.20;;;28.57;;
4700;SDS011;8724;51.272;6.554;2023-02-10T11:08:01;36.77;;;24.53;;
4700;SDS011;8724;51.272;6.554;2023-02-10T11:10:33;34.20;;;24.27;;
4700;SDS011;8724;51.272;6.554;2023-02-10T11:13:05;35.50;;;26.50;;
4700;SDS011;8724;51.272;6.554;2023-02-10T11:15:45;34.17;;;25.07;;
4700;SDS011;8724;51.272;6.554;2023-02-10T11:18:17;34.00;;;25.03;;
4700;SDS011;8724;51.272;6.554;2023-02-10T11:20:52;35.57;;;24.30;;
4700;SDS011;8724;51.272;6.554;2023-02-10T11:23:22;30.80;;;23.57;;
4700;SDS011;8724;51.272;6.554;2023-02-10T11:26:00;28.80;;;22.27;;
4700;SDS011;8724;51.272;6.554;2023-02-10T11:28:30;28.27;;;22.10;;
4700;SDS011;8724;51.272;6.554;2023-02-10T11:31:03;29.97;;;21.77;;
4700;SDS011;8724;51.272;6.554;2023-02-10T11:33:35;26.23;;;19.50;;
4700;SDS011;8724;51.272;6.554;2023-02-10T11:36:05;31.37;;;21.77;;
4700;SDS011;8724;51.272;6.554;2023-02-10T11:38:35;26.30;;;19.40;;
4700;SDS011;8724;51.272;6.554;2023-02-10T11:41:05;28.80;;;20.70;;
4700;SDS011;8724;51.272;6.554;2023-02-10T11:43:37;29.33;;;20.97;;
4700;SDS011;8724;51.272;6.554;2023-02-10T11:46:16;32.50;;;21.30;;
4700;SDS011;8724;51.272;6.554;2023-02-10T11:48:53;41.07;;;24.87;;
4700;SDS011;8724;51.272;6.554;2023-02-10T11:51:23;30.93;;;20.83;;
4700;SDS011;8724;51.272;6.554;2023-02-10T11:53:52;35.00;;;23.57;;
4700;SDS011;8724;51.272;6.554;2023-02-10T11:56:22;30.80;;;22.27;;
4700;SDS011;8724;51.272;6.554;2023-02-10T11:59:08;29.80;;;22.20;;
4700;SDS011;8724;51.272;6.554;2023-02-10T12:01:48;34.90;;;20.57;;
4700;SDS011;8724;51.272;6.554;2023-02-10T12:04:25;26.80;;;18.00;;
4700;SDS011;8724;51.272;6.554;2023-02-10T12:07:17;28.43;;;19.37;;
4700;SDS011;8724;51.272;6.554;2023-02-10T12:09:53;30.83;;;19.07;;
4700;SDS011;8724;51.272;6.554;2023-02-10T12:12:29;24.67;;;17.83;;
4700;SDS011;8724;51.272;6.554;2023-02-10T12:15:04;29.63;;;18.80;;
4700;SDS011;8724;51.272;6.554;2023-02-10T12:17:42;31.40;;;18.83;;
4700;SDS011;8724;51.272;6.554;2023-02-10T12:20:25;26.30;;;19.70;;
4700;SDS011;8724;51.272;6.554;2023-02-10T12:23:04;25.60;;;18.47;;
4700;SDS011;8724;51.272;6.554;2023-02-10T12:25:55;28.47;;;20.23;;
4700;SDS011;8724;51.272;6.554;2023-02-10T12:28:31;26.77;;;17.70;;
4700;SDS011;8724;51.272;6.554;2023-02-10T12:31:13;25.97;;;18.50;;
4700;SDS011;8724;51.272;6.554;2023-02-10T12:33:53;28.73;;;18.93;;
4700;SDS011;8724;51.272;6.554;2023-02-10T12:36:36;23.30;;;17.93;;
4700;SDS011;8724;51.272;6.554;2023-02-10T12:39:12;23.40;;;17.17;;
4700;SDS011;8724;51.272;6.554;2023-02-10T12:41:47;24.00;;;17.53;;
4700;SDS011;8724;51.272;6.554;2023-02-10T12:44:30;29.57;;;18.00;;
4700;SDS011;8724;51.272;6.554;2023-02-10T12:47:08;22.30;;;16.70;;
4700;SDS011;8724;51.272;6.554;2023-02-10T12:49:49;25.40;;;17.90;;
4700;SDS011;8724;51.272;6.554;2023-02-10T12:52:30;24.50;;;16.97;;
4700;SDS011;8724;51.272;6.554;2023-02-10T12:55:04;21.53;;;16.17;;
4700;SDS011;8724;51.272;6.554;2023-02-10T12:57:41;21.20;;;15.30;;
4700;SDS011;8724;51.272;6.554;2023-02-10T13:00:14;23.10;;;16.70;;
4700;SDS011;8724;51.272;6.554;2023-02-10T13:02:50;21.40;;;16.17;;
4700;SDS011;8724;51.272;6.554;2023-02-10T13:05:22;24.37;;;16.13;;
4700;SDS011;8724;51.272;6.554;2023-02-10T13:07:56;21.07;;;15.30;;
4700;SDS011;8724;51.272;6.554;2023-02-10T13:10:29;28.10;;;16.87;;
4700;SDS011;8724;51.272;6.554;2023-02-10T13:13:02;25.27;;;17.40;;
4700;SDS011;8724;51.272;6.554;2023-02-10T13:15:33;23.03;;;16.47;;
4700;SDS011;8724;51.272;6.554;2023-02-10T13:18:10;21.63;;;16.37;;
4700;SDS011;8724;51.272;6.554;2023-02-10T13:20:49;27.87;;;19.20;;
4700;SDS011;8724;51.272;6.554;2023-02-10T13:23:27;24.10;;;17.57;;
4700;SDS011;8724;51.272;6.554;2023-02-10T13:26:16;26.40;;;17.63;;
4700;SDS011;8724;51.272;6.554;2023-02-10T13:28:56;22.30;;;16.93;;
4700;SDS011;8724;51.272;6.554;2023-02-10T13:31:37;24.27;;;17.40;;
4700;SDS011;8724;51.272;6.554;2023-02-10T13:34:21;27.33;;;17.83;;
4700;SDS011;8724;51.272;6.554;2023-02-10T13:36:53;24.20;;;17.50;;
4700;SDS011;8724;51.272;6.554;2023-02-10T13:39:26;21.30;;;15.80;;
4700;SDS011;8724;51.272;6.554;2023-02-10T13:42:04;18.83;;;15.37;;
4700;SDS011;8724;51.272;6.554;2023-02-10T13:44:43;23.13;;;14.80;;
4700;SDS011;8724;51.272;6.554;2023-02-10T13:47:14;20.87;;;15.97;;
4700;SDS011;8724;51.272;6.554;2023-02-10T13:49:52;22.50;;;13.50;;
4700;SDS011;8724;51.272;6.554;2023-02-10T13:52:24;18.13;;;12.30;;
4700;SDS011;8724;51.272;6.554;2023-02-10T13:54:57;17.70;;;13.33;;
4700;SDS011;8724;51.272;6.554;2023-02-10T13:57:28;17.57;;;13.70;;
4700;SDS011;8724;51.272;6.554;2023-02-10T14:03:03;18.83;;;13.40;;
4700;SDS011;8724;51.272;6.554;2023-02-10T14:05:51;18.37;;;14.90;;
4700;SDS011;8724;51.272;6.554;2023-02-10T14:08:25;21.97;;;13.90;;
4700;SDS011;8724;51.272;6.554;2023-02-10T14:11:01;19.30;;;13.93;;
4700;SDS011;8724;51.272;6.554;2023-02-10T14:13:32;18.00;;;14.10;;
4700;SDS011;8724;51.272;6.554;2023-02-10T14:16:03;14.90;;;12.57;;
4700;SDS011;8724;51.272;6.554;2023-02-10T14:18:34;17.40;;;12.70;;
4700;SDS011;8724;51.272;6.554;2023-02-10T14:21:05;22.37;;;14.80;;
4700;SDS011;8724;51.272;6.554;2023-02-10T14:23:39;19.63;;;14.83;;
4700;SDS011;8724;51.272;6.554;2023-02-10T14:26:15;19.10;;;14.53;;
4700;SDS011;8724;51.272;6.554;2023-02-10T14:28:48;21.70;;;15.60;;
4700;SDS011;8724;51.272;6.554;2023-02-10T14:31:23;21.57;;;13.20;;
4700;SDS011;8724;51.272;6.554;2023-02-10T14:33:55;21.93;;;14.60;;
4700;SDS011;8724;51.272;6.554;2023-02-10T14:36:26;20.67;;;14.40;;
4700;SDS011;8724;51.272;6.554;2023-02-10T14:38:56;16.03;;;12.53;;
4700;SDS011;8724;51.272;6.554;2023-02-10T14:41:28;17.13;;;13.63;;
4700;SDS011;8724;51.272;6.554;2023-02-10T14:43:58;18.43;;;14.60;;
4700;SDS011;8724;51.272;6.554;2023-02-10T14:46:27;19.50;;;13.73;;
4700;SDS011;8724;51.272;6.554;2023-02-10T14:48:58;19.90;;;15.00;;
4700;SDS011;8724;51.272;6.554;2023-02-10T14:51:29;16.47;;;14.07;;
4700;SDS011;8724;51.272;6.554;2023-02-10T14:54:06;18.87;;;13.20;;
4700;SDS011;8724;51.272;6.554;2023-02-10T14:56:38;14.60;;;13.07;;
4700;SDS011;8724;51.272;6.554;2023-02-10T14:59:17;20.40;;;14.10;;
4700;SDS011;8724;51.272;6.554;2023-02-10T15:01:47;15.80;;;13.23;;
4700;SDS011;8724;51.272;6.554;2023-02-10T15:04:16;20.17;;;13.40;;
4700;SDS011;8724;51.272;6.554;2023-02-10T15:06:46;17.40;;;14.03;;
4700;SDS011;8724;51.272;6.554;2023-02-10T15:09:16;15.20;;;12.17;;
4700;SDS011;8724;51.272;6.554;2023-02-10T15:11:51;14.70;;;11.97;;
4700;SDS011;8724;51.272;6.554;2023-02-10T15:14:45;13.77;;;11.20;;
4700;SDS011;8724;51.272;6.554;2023-02-10T15:17:19;15.67;;;11.10;;
4700;SDS011;8724;51.272;6.554;2023-02-10T15:19:54;15.20;;;9.90;;
4700;SDS011;8724;51.272;6.554;2023-02-10T15:22:31;12.13;;;8.70;;
4700;SDS011;8724;51.272;6.554;2023-02-10T15:28:16;13.77;;;9.30;;
4700;SDS011;8724;51.272;6.554;2023-02-10T15:30:51;15.83;;;10.83;;